sensor_id;sensor_type;location;lat;lon;timestamp;P1;durP1;ratioP1;P2;durP2;ratioP2
11018;SDS011;5563;52.296;6.806;2023-08-30T00:00:28;9.32;;;8.45;;
11018;SDS011;5563;52.296;6.806;2023-08-30T00:02:58;8.95;;;8.15;;
11018;SDS011;5563;52.296;6.806;2023-08-30T00:05:33;9.32;;;8.38;;
11018;SDS011;5563;52.296;6.806;2023-08-30T00:08:04;9.18;;;8.27;;
11018;SDS011;5563;52.296;6.806;2023-08-30T00:10:51;8.93;;;8.05;;
11018;SDS011;5563;52.296;6.806;2023-08-30T00:13:19;8.52;;;7.82;;
11018;SDS011;5563;52.296;6.806;2023-08-30T00:15:58;9.35;;;8.50;;
11018;SDS011;5563;52.296;6.806;2023-08-30T00:18:44;9.07;;;8.27;;
11018;SDS011;5563;52.296;6.806;2023-08-30T00:21:25;9.45;;;8.55;;
11018;SDS011;5563;52.296;6.806;2023-08-30T00:23:56;9.52;;;7.70;;
11018;SDS011;5563;52.296;6.806;2023-08-30T00:26:35;9.15;;;8.25;;
11018;SDS011;5563;52.296;6.806;2023-08-30T00:29:10;9.02;;;8.13;;
11018;SDS011;5563;52.296;6.806;2023-08-30T00:31:44;9.63;;;7.95;;
11018;SDS011;5563;52.296;6.806;2023-08-30T00:34:23;8.85;;;8.07;;
11018;SDS011;5563;52.296;6.806;2023-08-30T00:36:54;8.63;;;7.65;;
11018;SDS011;5563;52.296;6.806;2023-08-30T00:39:41;10.77;;;9.15;;
11018;SDS011;5563;52.296;6.806;2023-08-30T00:42:12;10.43;;;9.43;;
11018;SDS011;5563;52.296;6.806;2023-08-30T00:44:59;9.55;;;8.65;;
11018;SDS011;5563;52.296;6.806;2023-08-30T00:47:38;9.43;;;8.60;;
11018;SDS011;5563;52.296;6.806;2023-08-30T00:50:20;9.48;;;8.45;;
11018;SDS011;5563;52.296;6.806;2023-08-30T00:52:57;9.48;;;8.55;;
11018;SDS011;5563;52.296;6.806;2023-08-30T00:55:47;9.60;;;8.70;;
11018;SDS011;5563;52.296;6.806;2023-08-30T00:58:24;9.75;;;8.77;;
11018;SDS011;5563;52.296;6.806;2023-08-30T01:01:00;10.40;;;9.25;;
11018;SDS011;5563;52.296;6.806;2023-08-30T01:03:35;9.82;;;8.82;;
11018;SDS011;5563;52.296;6.806;2023-08-30T01:06:13;10.05;;;9.10;;
11018;SDS011;5563;52.296;6.806;2023-08-30T01:08:45;10.25;;;9.23;;
11018;SDS011;5563;52.296;6.806;2023-08-30T01:11:39;9.82;;;8.88;;
11018;SDS011;5563;52.296;6.806;2023-08-30T01:15:08;9.80;;;8.80;;
11018;SDS011;5563;52.296;6.806;2023-08-30T01:17:57;10.32;;;9.43;;
11018;SDS011;5563;52.296;6.806;2023-08-30T01:20:30;10.07;;;8.95;;
11018;SDS011;5563;52.296;6.806;2023-08-30T01:28:34;9.50;;;8.50;;
11018;SDS011;5563;52.296;6.806;2023-08-30T01:31:13;9.27;;;8.35;;
11018;SDS011;5563;52.296;6.806;2023-08-30T01:33:49;9.35;;;8.55;;
11018;SDS011;5563;52.296;6.806;2023-08-30T01:36:24;9.13;;;8.23;;
11018;SDS011;5563;52.296;6.806;2023-08-30T01:39:05;9.73;;;8.82;;
11018;SDS011;5563;52.296;6.806;2023-08-30T01:41:34;9.95;;;8.95;;
11018;SDS011;5563;52.296;6.806;2023-08-30T01:44:09;10.15;;;9.20;;
11018;SDS011;5563;52.296;6.806;2023-08-30T01:46:38;10.93;;;9.88;;
11018;SDS011;5563;52.296;6.806;2023-08-30T01:49:19;12.55;;;11.13;;
11018;SDS011;5563;52.296;6.806;2023-08-30T01:52:05;11.93;;;10.68;;
11018;SDS011;5563;52.296;6.806;2023-08-30T01:54:40;12.65;;;11.40;;
11018;SDS011;5563;52.296;6.806;2023-08-30T01:57:13;13.32;;;12.02;;
11018;SDS011;5563;52.296;6.806;2023-08-30T01:59:47;14.23;;;12.93;;
11018;SDS011;5563;52.296;6.806;2023-08-30T02:02:15;12.88;;;11.57;;
11018;SDS011;5563;52.296;6.806;2023-08-30T02:05:01;14.00;;;12.65;;
11018;SDS011;5563;52.296;6.806;2023-08-30T02:10:21;14.00;;;12.68;;
11018;SDS011;5563;52.296;6.806;2023-08-30T02:13:01;13.73;;;12.32;;
11018;SDS011;5563;52.296;6.806;2023-08-30T02:15:38;13.77;;;12.43;;
11018;SDS011;5563;52.296;6.806;2023-08-30T02:18:17;12.93;;;11.63;;
11018;SDS011;5563;52.296;6.806;2023-08-30T02:20:47;13.07;;;11.77;;
11018;SDS011;5563;52.296;6.806;2023-08-30T02:23:22;13.32;;;12.00;;
11018;SDS011;5563;52.296;6.806;2023-08-30T02:25:51;13.27;;;11.50;;
11018;SDS011;5563;52.296;6.806;2023-08-30T02:28:27;12.02;;;10.90;;
11018;SDS011;5563;52.296;6.806;2023-08-30T02:30:55;12.40;;;11.27;;
11018;SDS011;5563;52.296;6.806;2023-08-30T02:33:29;12.48;;;11.18;;
11018;SDS011;5563;52.296;6.806;2023-08-30T02:35:59;13.63;;;12.23;;
11018;SDS011;5563;52.296;6.806;2023-08-30T02:38:35;12.88;;;11.45;;
11018;SDS011;5563;52.296;6.806;2023-08-30T02:41:09;12.75;;;11.50;;
11018;SDS011;5563;52.296;6.806;2023-08-30T02:43:43;12.80;;;11.60;;
11018;SDS011;5563;52.296;6.806;2023-08-30T02:46:17;13.13;;;11.93;;
11018;SDS011;5563;52.296;6.806;2023-08-30T02:48:59;13.73;;;12.32;;
11018;SDS011;5563;52.296;6.806;2023-08-30T02:51:45;12.52;;;11.23;;
11018;SDS011;5563;52.296;6.806;2023-08-30T02:54:23;12.63;;;11.43;;
11018;SDS011;5563;52.296;6.806;2023-08-30T02:57:10;11.95;;;10.65;;
11018;SDS011;5563;52.296;6.806;2023-08-30T02:59:47;12.50;;;11.30;;
11018;SDS011;5563;52.296;6.806;2023-08-30T03:02:18;11.48;;;10.38;;
11018;SDS011;5563;52.296;6.806;2023-08-30T03:04:55;12.35;;;10.70;;
11018;SDS011;5563;52.296;6.806;2023-08-30T03:07:23;12.18;;;10.95;;
11018;SDS011;5563;52.296;6.806;2023-08-30T03:10:11;11.85;;;10.65;;
11018;SDS011;5563;52.296;6.806;2023-08-30T03:12:53;11.38;;;10.27;;
11018;SDS011;5563;52.296;6.806;2023-08-30T03:15:21;11.27;;;10.15;;
11018;SDS011;5563;52.296;6.806;2023-08-30T03:18:00;11.30;;;10.20;;
11018;SDS011;5563;52.296;6.806;2023-08-30T03:20:36;12.40;;;11.18;;
11018;SDS011;5563;52.296;6.806;2023-08-30T03:23:23;11.88;;;10.77;;
11018;SDS011;5563;52.296;6.806;2023-08-30T03:25:53;12.82;;;11.25;;
11018;SDS011;5563;52.296;6.806;2023-08-30T03:28:45;11.50;;;10.40;;
11018;SDS011;5563;52.296;6.806;2023-08-30T03:31:19;10.90;;;9.90;;
11018;SDS011;5563;52.296;6.806;2023-08-30T03:34:00;10.60;;;9.25;;
11018;SDS011;5563;52.296;6.806;2023-08-30T03:36:28;11.80;;;9.90;;
11018;SDS011;5563;52.296;6.806;2023-08-30T03:39:16;10.85;;;9.75;;
11018;SDS011;5563;52.296;6.806;2023-08-30T03:41:44;10.50;;;9.50;;
11018;SDS011;5563;52.296;6.806;2023-08-30T03:44:19;9.93;;;9.02;;
11018;SDS011;5563;52.296;6.806;2023-08-30T03:46:57;10.95;;;9.63;;
11018;SDS011;5563;52.296;6.806;2023-08-30T03:49:52;11.02;;;9.77;;
11018;SDS011;5563;52.296;6.806;2023-08-30T03:52:33;11.43;;;10.32;;
11018;SDS011;5563;52.296;6.806;2023-08-30T03:55:08;11.00;;;9.85;;
11018;SDS011;5563;52.296;6.806;2023-08-30T03:57:36;11.57;;;9.75;;
11018;SDS011;5563;52.296;6.806;2023-08-30T04:00:13;10.15;;;9.15;;
11018;SDS011;5563;52.296;6.806;2023-08-30T04:02:44;10.73;;;9.73;;
11018;SDS011;5563;52.296;6.806;2023-08-30T04:05:23;11.15;;;9.82;;
11018;SDS011;5563;52.296;6.806;2023-08-30T04:07:54;11.18;;;10.07;;
11018;SDS011;5563;52.296;6.806;2023-08-30T04:10:33;11.20;;;10.10;;
11018;SDS011;5563;52.296;6.806;2023-08-30T04:13:13;11.27;;;10.07;;
11018;SDS011;5563;52.296;6.806;2023-08-30T04:15:53;12.00;;;10.75;;
11018;SDS011;5563;52.296;6.806;2023-08-30T04:18:29;14.15;;;12.52;;
11018;SDS011;5563;52.296;6.806;2023-08-30T04:20:59;12.32;;;11.05;;
11018;SDS011;5563;52.296;6.806;2023-08-30T04:23:35;12.20;;;10.90;;
11018;SDS011;5563;52.296;6.806;2023-08-30T04:26:11;13.73;;;11.50;;
11018;SDS011;5563;52.296;6.806;2023-08-30T04:28:38;14.07;;;12.10;;
11018;SDS011;5563;52.296;6.806;2023-08-30T04:34:58;13.40;;;11.77;;
11018;SDS011;5563;52.296;6.806;2023-08-30T04:41:27;15.75;;;13.18;;
11018;SDS011;5563;52.296;6.806;2023-08-30T04:47:46;14.77;;;13.27;;
11018;SDS011;5563;52.296;6.806;2023-08-30T04:50:27;15.25;;;13.75;;
11018;SDS011;5563;52.296;6.806;2023-08-30T04:53:11;14.55;;;13.15;;
11018;SDS011;5563;52.296;6.806;2023-08-30T04:55:42;14.73;;;12.95;;
11018;SDS011;5563;52.296;6.806;2023-08-30T04:58:18;16.65;;;13.75;;
11018;SDS011;5563;52.296;6.806;2023-08-30T05:01:01;14.52;;;13.02;;
11018;SDS011;5563;52.296;6.806;2023-08-30T05:03:32;14.65;;;13.15;;
11018;SDS011;5563;52.296;6.806;2023-08-30T05:06:09;15.15;;;13.65;;
11018;SDS011;5563;52.296;6.806;2023-08-30T05:08:38;15.65;;;13.35;;
11018;SDS011;5563;52.296;6.806;2023-08-30T05:11:12;16.55;;;14.82;;
11018;SDS011;5563;52.296;6.806;2023-08-30T05:13:48;15.27;;;13.70;;
11018;SDS011;5563;52.296;6.806;2023-08-30T05:16:25;15.82;;;14.23;;
11018;SDS011;5563;52.296;6.806;2023-08-30T05:18:55;15.63;;;14.07;;
11018;SDS011;5563;52.296;6.806;2023-08-30T05:21:29;17.73;;;14.55;;
11018;SDS011;5563;52.296;6.806;2023-08-30T05:23:59;15.45;;;13.90;;
11018;SDS011;5563;52.296;6.806;2023-08-30T05:26:50;16.80;;;13.80;;
11018;SDS011;5563;52.296;6.806;2023-08-30T05:29:18;16.40;;;13.35;;
11018;SDS011;5563;52.296;6.806;2023-08-30T05:31:54;15.10;;;13.63;;
11018;SDS011;5563;52.296;6.806;2023-08-30T05:34:22;15.38;;;13.35;;
11018;SDS011;5563;52.296;6.806;2023-08-30T05:36:59;16.17;;;14.18;;
11018;SDS011;5563;52.296;6.806;2023-08-30T05:39:33;16.80;;;13.60;;
11018;SDS011;5563;52.296;6.806;2023-08-30T05:42:10;14.68;;;13.18;;
11018;SDS011;5563;52.296;6.806;2023-08-30T05:44:45;14.75;;;13.18;;
11018;SDS011;5563;52.296;6.806;2023-08-30T05:47:15;14.80;;;13.27;;
11018;SDS011;5563;52.296;6.806;2023-08-30T05:49:58;14.82;;;13.27;;
11018;SDS011;5563;52.296;6.806;2023-08-30T05:52:33;14.07;;;12.68;;
11018;SDS011;5563;52.296;6.806;2023-08-30T05:55:16;18.13;;;16.25;;
11018;SDS011;5563;52.296;6.806;2023-08-30T05:57:50;17.33;;;15.52;;
11018;SDS011;5563;52.296;6.806;2023-08-30T06:00:26;23.23;;;20.70;;
11018;SDS011;5563;52.296;6.806;2023-08-30T06:02:57;22.17;;;18.95;;
11018;SDS011;5563;52.296;6.806;2023-08-30T06:05:31;16.83;;;14.63;;
11018;SDS011;5563;52.296;6.806;2023-08-30T06:08:02;15.27;;;13.20;;
11018;SDS011;5563;52.296;6.806;2023-08-30T06:10:40;15.73;;;13.15;;
11018;SDS011;5563;52.296;6.806;2023-08-30T06:13:14;14.90;;;12.55;;
11018;SDS011;5563;52.296;6.806;2023-08-30T06:15:51;16.17;;;13.82;;
11018;SDS011;5563;52.296;6.806;2023-08-30T06:18:26;16.10;;;13.80;;
11018;SDS011;5563;52.296;6.806;2023-08-30T06:21:04;15.73;;;13.77;;
11018;SDS011;5563;52.296;6.806;2023-08-30T06:23:40;14.90;;;13.38;;
11018;SDS011;5563;52.296;6.806;2023-08-30T06:26:08;14.65;;;13.13;;
11018;SDS011;5563;52.296;6.806;2023-08-30T06:28:44;14.10;;;12.73;;
11018;SDS011;5563;52.296;6.806;2023-08-30T06:31:30;17.02;;;15.23;;
11018;SDS011;5563;52.296;6.806;2023-08-30T06:34:05;20.33;;;17.98;;
11018;SDS011;5563;52.296;6.806;2023-08-30T06:36:53;21.67;;;17.23;;
11018;SDS011;5563;52.296;6.806;2023-08-30T06:39:34;15.77;;;14.20;;
11018;SDS011;5563;52.296;6.806;2023-08-30T06:42:03;14.93;;;13.43;;
11018;SDS011;5563;52.296;6.806;2023-08-30T06:44:37;13.23;;;11.82;;
11018;SDS011;5563;52.296;6.806;2023-08-30T06:47:13;14.07;;;12.57;;
11018;SDS011;5563;52.296;6.806;2023-08-30T06:50:01;13.80;;;12.38;;
11018;SDS011;5563;52.296;6.806;2023-08-30T06:52:44;12.57;;;11.27;;
11018;SDS011;5563;52.296;6.806;2023-08-30T06:55:18;15.90;;;13.90;;
11018;SDS011;5563;52.296;6.806;2023-08-30T06:57:58;15.07;;;13.52;;
11018;SDS011;5563;52.296;6.806;2023-08-30T07:00:33;14.38;;;11.93;;
11018;SDS011;5563;52.296;6.806;2023-08-30T07:03:04;14.88;;;12.65;;
11018;SDS011;5563;52.296;6.806;2023-08-30T07:05:38;13.88;;;11.85;;
11018;SDS011;5563;52.296;6.806;2023-08-30T07:08:10;13.00;;;11.35;;
11018;SDS011;5563;52.296;6.806;2023-08-30T07:10:44;13.13;;;11.73;;
11018;SDS011;5563;52.296;6.806;2023-08-30T07:13:22;12.68;;;10.45;;
11018;SDS011;5563;52.296;6.806;2023-08-30T07:16:02;13.52;;;11.30;;
11018;SDS011;5563;52.296;6.806;2023-08-30T07:18:33;11.38;;;10.25;;
11018;SDS011;5563;52.296;6.806;2023-08-30T07:21:07;11.02;;;9.93;;
11018;SDS011;5563;52.296;6.806;2023-08-30T07:23:38;10.65;;;9.65;;
11018;SDS011;5563;52.296;6.806;2023-08-30T07:26:12;11.32;;;10.13;;
11018;SDS011;5563;52.296;6.806;2023-08-30T07:28:47;10.50;;;9.30;;
11018;SDS011;5563;52.296;6.806;2023-08-30T07:31:24;11.40;;;10.10;;
11018;SDS011;5563;52.296;6.806;2023-08-30T07:34:00;11.15;;;10.05;;
11018;SDS011;5563;52.296;6.806;2023-08-30T07:36:40;12.05;;;9.75;;
11018;SDS011;5563;52.296;6.806;2023-08-30T07:39:13;11.25;;;9.70;;
11018;SDS011;5563;52.296;6.806;2023-08-30T07:41:48;12.88;;;10.70;;
11018;SDS011;5563;52.296;6.806;2023-08-30T07:44:16;12.38;;;11.00;;
11018;SDS011;5563;52.296;6.806;2023-08-30T07:46:50;12.98;;;11.57;;
11018;SDS011;5563;52.296;6.806;2023-08-30T07:49:30;16.90;;;11.23;;
11018;SDS011;5563;52.296;6.806;2023-08-30T07:52:08;12.45;;;10.75;;
11018;SDS011;5563;52.296;6.806;2023-08-30T07:55:13;13.05;;;11.63;;
11018;SDS011;5563;52.296;6.806;2023-08-30T07:57:48;13.20;;;11.52;;
11018;SDS011;5563;52.296;6.806;2023-08-30T08:00:16;14.30;;;12.93;;
11018;SDS011;5563;52.296;6.806;2023-08-30T08:02:55;14.68;;;12.77;;
11018;SDS011;5563;52.296;6.806;2023-08-30T08:05:22;14.55;;;12.55;;
11018;SDS011;5563;52.296;6.806;2023-08-30T08:07:51;16.02;;;14.00;;
11018;SDS011;5563;52.296;6.806;2023-08-30T08:10:27;15.23;;;12.90;;
11018;SDS011;5563;52.296;6.806;2023-08-30T08:12:57;13.30;;;11.90;;
11018;SDS011;5563;52.296;6.806;2023-08-30T08:15:33;13.77;;;12.25;;
11018;SDS011;5563;52.296;6.806;2023-08-30T08:18:14;13.82;;;12.18;;
11018;SDS011;5563;52.296;6.806;2023-08-30T08:20:51;13.98;;;12.57;;
11018;SDS011;5563;52.296;6.806;2023-08-30T08:23:19;13.98;;;12.57;;
11018;SDS011;5563;52.296;6.806;2023-08-30T08:25:57;14.20;;;11.73;;
11018;SDS011;5563;52.296;6.806;2023-08-30T08:28:29;13.02;;;11.73;;
11018;SDS011;5563;52.296;6.806;2023-08-30T08:31:06;12.82;;;11.43;;
11018;SDS011;5563;52.296;6.806;2023-08-30T08:33:38;13.05;;;11.75;;
11018;SDS011;5563;52.296;6.806;2023-08-30T08:36:12;14.13;;;12.73;;
11018;SDS011;5563;52.296;6.806;2023-08-30T08:38:39;13.23;;;11.85;;
11018;SDS011;5563;52.296;6.806;2023-08-30T08:41:16;12.75;;;11.55;;
11018;SDS011;5563;52.296;6.806;2023-08-30T08:43:57;13.90;;;11.95;;
11018;SDS011;5563;52.296;6.806;2023-08-30T08:46:36;13.90;;;12.45;;
11018;SDS011;5563;52.296;6.806;2023-08-30T08:49:20;13.07;;;11.73;;
11018;SDS011;5563;52.296;6.806;2023-08-30T08:52:04;12.95;;;11.52;;
11018;SDS011;5563;52.296;6.806;2023-08-30T08:54:56;13.48;;;12.15;;
11018;SDS011;5563;52.296;6.806;2023-08-30T08:57:32;14.95;;;12.77;;
11018;SDS011;5563;52.296;6.806;2023-08-30T08:59:59;14.05;;;12.65;;
11018;SDS011;5563;52.296;6.806;2023-08-30T09:02:44;15.00;;;13.02;;
11018;SDS011;5563;52.296;6.806;2023-08-30T09:05:20;14.93;;;13.35;;
11018;SDS011;5563;52.296;6.806;2023-08-30T09:07:49;14.35;;;12.40;;
11018;SDS011;5563;52.296;6.806;2023-08-30T09:10:26;14.68;;;13.15;;
11018;SDS011;5563;52.296;6.806;2023-08-30T09:12:54;14.80;;;12.23;;
11018;SDS011;5563;52.296;6.806;2023-08-30T09:15:33;15.55;;;14.02;;
11018;SDS011;5563;52.296;6.806;2023-08-30T09:18:01;16.27;;;14.07;;
11018;SDS011;5563;52.296;6.806;2023-08-30T09:20:35;16.27;;;13.85;;
11018;SDS011;5563;52.296;6.806;2023-08-30T09:23:02;15.85;;;14.15;;
11018;SDS011;5563;52.296;6.806;2023-08-30T09:25:35;14.98;;;13.35;;
11018;SDS011;5563;52.296;6.806;2023-08-30T09:28:02;14.75;;;13.25;;
11018;SDS011;5563;52.296;6.806;2023-08-30T09:30:36;15.98;;;12.77;;
11018;SDS011;5563;52.296;6.806;2023-08-30T09:33:03;13.90;;;12.60;;
11018;SDS011;5563;52.296;6.806;2023-08-30T09:35:44;15.23;;;13.73;;
11018;SDS011;5563;52.296;6.806;2023-08-30T09:38:18;15.38;;;13.85;;
11018;SDS011;5563;52.296;6.806;2023-08-30T09:40:52;17.23;;;14.60;;
11018;SDS011;5563;52.296;6.806;2023-08-30T09:43:31;16.95;;;15.27;;
11018;SDS011;5563;52.296;6.806;2023-08-30T09:46:06;15.43;;;13.82;;
11018;SDS011;5563;52.296;6.806;2023-08-30T09:48:40;18.17;;;15.25;;
11018;SDS011;5563;52.296;6.806;2023-08-30T09:51:08;17.15;;;15.55;;
11018;SDS011;5563;52.296;6.806;2023-08-30T09:53:43;18.05;;;15.68;;
11018;SDS011;5563;52.296;6.806;2023-08-30T09:56:33;18.33;;;15.77;;
11018;SDS011;5563;52.296;6.806;2023-08-30T09:59:13;19.17;;;16.83;;
11018;SDS011;5563;52.296;6.806;2023-08-30T10:01:41;17.60;;;15.70;;
11018;SDS011;5563;52.296;6.806;2023-08-30T10:04:16;17.70;;;15.90;;
11018;SDS011;5563;52.296;6.806;2023-08-30T10:06:52;19.35;;;17.35;;
11018;SDS011;5563;52.296;6.806;2023-08-30T10:09:22;18.70;;;16.75;;
11018;SDS011;5563;52.296;6.806;2023-08-30T10:11:57;19.50;;;16.67;;
11018;SDS011;5563;52.296;6.806;2023-08-30T10:14:34;19.08;;;17.17;;
11018;SDS011;5563;52.296;6.806;2023-08-30T10:17:08;18.55;;;16.23;;
11018;SDS011;5563;52.296;6.806;2023-08-30T10:19:38;17.70;;;15.95;;
11018;SDS011;5563;52.296;6.806;2023-08-30T10:22:07;18.05;;;16.40;;
11018;SDS011;5563;52.296;6.806;2023-08-30T10:24:49;18.95;;;16.83;;
11018;SDS011;5563;52.296;6.806;2023-08-30T10:27:37;18.92;;;17.05;;
11018;SDS011;5563;52.296;6.806;2023-08-30T10:30:14;19.40;;;17.42;;
11018;SDS011;5563;52.296;6.806;2023-08-30T10:32:43;18.05;;;16.27;;
11018;SDS011;5563;52.296;6.806;2023-08-30T10:35:18;17.92;;;16.02;;
11018;SDS011;5563;52.296;6.806;2023-08-30T10:37:55;16.80;;;15.02;;
11018;SDS011;5563;52.296;6.806;2023-08-30T10:40:32;16.92;;;15.27;;
11018;SDS011;5563;52.296;6.806;2023-08-30T10:43:02;22.35;;;16.08;;
11018;SDS011;5563;52.296;6.806;2023-08-30T10:45:36;16.75;;;15.10;;
11018;SDS011;5563;52.296;6.806;2023-08-30T10:48:03;15.90;;;14.05;;
11018;SDS011;5563;52.296;6.806;2023-08-30T10:50:43;17.40;;;15.80;;
11018;SDS011;5563;52.296;6.806;2023-08-30T10:53:13;16.40;;;14.80;;
11018;SDS011;5563;52.296;6.806;2023-08-30T10:56:02;15.60;;;13.95;;
11018;SDS011;5563;52.296;6.806;2023-08-30T10:58:38;15.48;;;13.93;;
11018;SDS011;5563;52.296;6.806;2023-08-30T11:01:16;17.67;;;15.93;;
11018;SDS011;5563;52.296;6.806;2023-08-30T11:03:50;17.52;;;15.20;;
11018;SDS011;5563;52.296;6.806;2023-08-30T11:06:43;16.65;;;14.95;;
11018;SDS011;5563;52.296;6.806;2023-08-30T11:09:21;16.15;;;14.45;;
11018;SDS011;5563;52.296;6.806;2023-08-30T11:11:56;15.55;;;14.15;;
11018;SDS011;5563;52.296;6.806;2023-08-30T11:14:23;13.77;;;12.48;;
11018;SDS011;5563;52.296;6.806;2023-08-30T11:16:57;14.05;;;12.75;;
11018;SDS011;5563;52.296;6.806;2023-08-30T11:19:29;14.23;;;12.82;;
11018;SDS011;5563;52.296;6.806;2023-08-30T11:22:03;12.52;;;11.25;;
11018;SDS011;5563;52.296;6.806;2023-08-30T11:24:37;12.38;;;11.18;;
11018;SDS011;5563;52.296;6.806;2023-08-30T11:27:04;11.70;;;10.57;;
11018;SDS011;5563;52.296;6.806;2023-08-30T11:29:39;12.80;;;11.63;;
11018;SDS011;5563;52.296;6.806;2023-08-30T11:32:09;12.52;;;11.27;;
11018;SDS011;5563;52.296;6.806;2023-08-30T11:34:43;11.15;;;10.10;;
11018;SDS011;5563;52.296;6.806;2023-08-30T11:37:11;10.23;;;9.27;;
11018;SDS011;5563;52.296;6.806;2023-08-30T11:39:51;12.75;;;11.55;;
11018;SDS011;5563;52.296;6.806;2023-08-30T11:42:19;10.75;;;9.68;;
11018;SDS011;5563;52.296;6.806;2023-08-30T11:44:55;10.27;;;9.15;;
11018;SDS011;5563;52.296;6.806;2023-08-30T11:47:25;11.50;;;10.40;;
11018;SDS011;5563;52.296;6.806;2023-08-30T11:50:03;10.75;;;9.65;;
11018;SDS011;5563;52.296;6.806;2023-08-30T11:52:39;10.85;;;9.75;;
11018;SDS011;5563;52.296;6.806;2023-08-30T11:55:20;12.38;;;10.15;;
11018;SDS011;5563;52.296;6.806;2023-08-30T11:57:59;11.55;;;10.45;;
11018;SDS011;5563;52.296;6.806;2023-08-30T12:00:36;11.10;;;9.93;;
11018;SDS011;5563;52.296;6.806;2023-08-30T12:03:05;10.95;;;9.95;;
11018;SDS011;5563;52.296;6.806;2023-08-30T12:05:48;10.63;;;9.73;;
11018;SDS011;5563;52.296;6.806;2023-08-30T12:08:27;12.43;;;11.23;;
11018;SDS011;5563;52.296;6.806;2023-08-30T12:11:02;12.60;;;11.05;;
11018;SDS011;5563;52.296;6.806;2023-08-30T12:13:33;12.40;;;11.15;;
11018;SDS011;5563;52.296;6.806;2023-08-30T12:16:14;12.88;;;11.48;;
11018;SDS011;5563;52.296;6.806;2023-08-30T12:18:50;13.25;;;11.95;;
11018;SDS011;5563;52.296;6.806;2023-08-30T12:21:18;13.27;;;12.05;;
11018;SDS011;5563;52.296;6.806;2023-08-30T12:23:59;13.75;;;12.48;;
11018;SDS011;5563;52.296;6.806;2023-08-30T12:26:32;14.13;;;12.68;;
11018;SDS011;5563;52.296;6.806;2023-08-30T12:29:20;13.20;;;12.00;;
11018;SDS011;5563;52.296;6.806;2023-08-30T12:31:50;12.82;;;11.63;;
11018;SDS011;5563;52.296;6.806;2023-08-30T12:34:24;13.13;;;11.82;;
11018;SDS011;5563;52.296;6.806;2023-08-30T12:36:52;13.10;;;11.90;;
11018;SDS011;5563;52.296;6.806;2023-08-30T12:39:33;12.02;;;10.88;;
11018;SDS011;5563;52.296;6.806;2023-08-30T12:42:00;12.98;;;11.75;;
11018;SDS011;5563;52.296;6.806;2023-08-30T12:44:41;12.88;;;11.68;;
11018;SDS011;5563;52.296;6.806;2023-08-30T12:47:08;12.68;;;11.57;;
11018;SDS011;5563;52.296;6.806;2023-08-30T12:49:36;12.75;;;11.55;;
11018;SDS011;5563;52.296;6.806;2023-08-30T12:52:10;12.75;;;11.65;;
11018;SDS011;5563;52.296;6.806;2023-08-30T12:54:52;11.75;;;10.65;;
11018;SDS011;5563;52.296;6.806;2023-08-30T12:57:20;11.85;;;10.85;;
11018;SDS011;5563;52.296;6.806;2023-08-30T13:00:08;11.30;;;10.27;;
11018;SDS011;5563;52.296;6.806;2023-08-30T13:02:51;12.52;;;11.32;;
11018;SDS011;5563;52.296;6.806;2023-08-30T13:05:19;12.90;;;11.80;;
11018;SDS011;5563;52.296;6.806;2023-08-30T13:07:59;12.00;;;10.90;;
11018;SDS011;5563;52.296;6.806;2023-08-30T13:10:33;12.52;;;11.43;;
11018;SDS011;5563;52.296;6.806;2023-08-30T13:13:01;11.77;;;10.77;;
11018;SDS011;5563;52.296;6.806;2023-08-30T13:15:36;15.18;;;12.38;;
11018;SDS011;5563;52.296;6.806;2023-08-30T13:18:15;12.65;;;11.45;;
11018;SDS011;5563;52.296;6.806;2023-08-30T13:20:49;11.73;;;10.77;;
11018;SDS011;5563;52.296;6.806;2023-08-30T13:23:23;11.75;;;10.75;;
11018;SDS011;5563;52.296;6.806;2023-08-30T13:25:53;11.80;;;10.80;;
11018;SDS011;5563;52.296;6.806;2023-08-30T13:28:27;10.93;;;10.02;;
11018;SDS011;5563;52.296;6.806;2023-08-30T13:30:56;10.70;;;9.80;;
11018;SDS011;5563;52.296;6.806;2023-08-30T13:33:30;10.43;;;9.52;;
11018;SDS011;5563;52.296;6.806;2023-08-30T13:35:58;9.77;;;8.88;;
11018;SDS011;5563;52.296;6.806;2023-08-30T13:38:34;9.15;;;8.32;;
11018;SDS011;5563;52.296;6.806;2023-08-30T13:41:08;9.20;;;8.30;;
11018;SDS011;5563;52.296;6.806;2023-08-30T13:43:36;8.88;;;7.97;;
11018;SDS011;5563;52.296;6.806;2023-08-30T13:46:09;7.72;;;7.03;;
11018;SDS011;5563;52.296;6.806;2023-08-30T13:48:37;8.95;;;8.05;;
11018;SDS011;5563;52.296;6.806;2023-08-30T13:51:36;9.02;;;8.15;;
11018;SDS011;5563;52.296;6.806;2023-08-30T13:54:19;6.60;;;5.68;;
11018;SDS011;5563;52.296;6.806;2023-08-30T13:56:54;6.72;;;6.03;;
11018;SDS011;5563;52.296;6.806;2023-08-30T13:59:23;6.80;;;4.97;;
11018;SDS011;5563;52.296;6.806;2023-08-30T14:02:02;3.97;;;3.58;;
11018;SDS011;5563;52.296;6.806;2023-08-30T14:04:31;7.80;;;3.75;;
11018;SDS011;5563;52.296;6.806;2023-08-30T14:07:05;3.47;;;3.10;;
11018;SDS011;5563;52.296;6.806;2023-08-30T14:09:39;4.45;;;2.70;;
11018;SDS011;5563;52.296;6.806;2023-08-30T14:12:19;3.22;;;2.40;;
11018;SDS011;5563;52.296;6.806;2023-08-30T14:14:46;5.68;;;2.42;;
11018;SDS011;5563;52.296;6.806;2023-08-30T14:17:22;2.67;;;2.00;;
11018;SDS011;5563;52.296;6.806;2023-08-30T14:19:59;5.15;;;2.28;;
11018;SDS011;5563;52.296;6.806;2023-08-30T14:22:35;3.97;;;2.35;;
11018;SDS011;5563;52.296;6.806;2023-08-30T14:25:09;8.80;;;7.43;;
11018;SDS011;5563;52.296;6.806;2023-08-30T14:27:49;3.05;;;2.15;;
11018;SDS011;5563;52.296;6.806;2023-08-30T14:30:17;3.13;;;2.20;;
11018;SDS011;5563;52.296;6.806;2023-08-30T14:32:54;4.00;;;1.90;;
11018;SDS011;5563;52.296;6.806;2023-08-30T14:35:34;4.68;;;2.20;;
11018;SDS011;5563;52.296;6.806;2023-08-30T14:38:01;3.65;;;1.83;;
11018;SDS011;5563;52.296;6.806;2023-08-30T14:40:38;5.82;;;2.30;;
11018;SDS011;5563;52.296;6.806;2023-08-30T14:43:07;4.28;;;2.10;;
11018;SDS011;5563;52.296;6.806;2023-08-30T14:45:43;3.28;;;1.70;;
11018;SDS011;5563;52.296;6.806;2023-08-30T14:48:15;3.93;;;2.07;;
11018;SDS011;5563;52.296;6.806;2023-08-30T14:50:56;6.28;;;2.00;;
11018;SDS011;5563;52.296;6.806;2023-08-30T14:53:38;3.72;;;2.00;;
11018;SDS011;5563;52.296;6.806;2023-08-30T14:56:12;4.50;;;2.20;;
11018;SDS011;5563;52.296;6.806;2023-08-30T14:58:39;5.53;;;2.33;;
11018;SDS011;5563;52.296;6.806;2023-08-30T15:01:16;3.95;;;2.28;;
11018;SDS011;5563;52.296;6.806;2023-08-30T15:03:49;7.05;;;2.90;;
11018;SDS011;5563;52.296;6.806;2023-08-30T15:06:16;3.55;;;2.65;;
11018;SDS011;5563;52.296;6.806;2023-08-30T15:08:50;4.25;;;2.55;;
11018;SDS011;5563;52.296;6.806;2023-08-30T15:11:20;5.22;;;3.10;;
11018;SDS011;5563;52.296;6.806;2023-08-30T15:13:59;4.30;;;2.83;;
11018;SDS011;5563;52.296;6.806;2023-08-30T15:16:32;6.78;;;2.50;;
11018;SDS011;5563;52.296;6.806;2023-08-30T15:18:59;5.25;;;2.30;;
11018;SDS011;5563;52.296;6.806;2023-08-30T15:21:26;4.30;;;2.30;;
11018;SDS011;5563;52.296;6.806;2023-08-30T15:24:00;4.03;;;2.05;;
11018;SDS011;5563;52.296;6.806;2023-08-30T15:26:27;4.88;;;2.60;;
11018;SDS011;5563;52.296;6.806;2023-08-30T15:29:06;5.10;;;2.20;;
11018;SDS011;5563;52.296;6.806;2023-08-30T15:31:43;3.83;;;2.00;;
11018;SDS011;5563;52.296;6.806;2023-08-30T15:35:08;5.38;;;2.10;;
11018;SDS011;5563;52.296;6.806;2023-08-30T15:37:42;4.25;;;1.70;;
11018;SDS011;5563;52.296;6.806;2023-08-30T15:40:16;3.97;;;1.88;;
11018;SDS011;5563;52.296;6.806;2023-08-30T15:42:52;5.07;;;2.47;;
11018;SDS011;5563;52.296;6.806;2023-08-30T15:45:29;5.18;;;2.28;;
11018;SDS011;5563;52.296;6.806;2023-08-30T15:47:58;6.63;;;2.40;;
11018;SDS011;5563;52.296;6.806;2023-08-30T15:50:39;4.78;;;2.40;;
11018;SDS011;5563;52.296;6.806;2023-08-30T15:53:22;4.75;;;2.53;;